createdAt,value
2019-01-12T00:00:24.062Z,5.70
2019-01-12T00:03:05.241Z,5.70
2019-01-12T00:05:45.806Z,5.70
2019-01-12T00:08:26.542Z,5.60
2019-01-12T00:11:07.010Z,5.60
2019-01-12T00:13:48.053Z,5.60
2019-01-12T00:16:28.906Z,5.60
2019-01-12T00:19:09.657Z,5.60
2019-01-12T00:21:50.665Z,5.40
2019-01-12T00:24:31.935Z,5.60
2019-01-12T00:27:13.119Z,5.50
2019-01-12T00:29:54.089Z,5.60
2019-01-12T00:32:34.998Z,5.60
2019-01-12T00:35:15.963Z,5.50
2019-01-12T00:37:56.581Z,5.50
2019-01-12T00:40:36.969Z,5.50
2019-01-12T00:43:17.884Z,5.60
2019-01-12T00:45:59.071Z,5.50
2019-01-12T00:48:39.649Z,5.50
2019-01-12T00:51:20.914Z,5.50
2019-01-12T00:54:01.639Z,5.50
2019-01-12T00:56:42.606Z,5.50
2019-01-12T00:59:23.126Z,5.50
2019-01-12T01:02:04.019Z,5.50
2019-01-12T01:04:44.946Z,5.50
2019-01-12T01:07:25.487Z,5.50
2019-01-12T01:10:06.591Z,5.50
2019-01-12T01:12:47.753Z,5.50
2019-01-12T01:15:28.258Z,5.50
2019-01-12T01:18:09.111Z,5.50
2019-01-12T01:20:49.713Z,5.50
2019-01-12T01:23:30.589Z,5.50
2019-01-12T01:26:11.479Z,5.40
2019-01-12T01:28:52.526Z,5.50
2019-01-12T01:31:33.038Z,5.50
2019-01-12T01:34:13.755Z,5.50
2019-01-12T01:36:55.130Z,5.50
2019-01-12T01:39:35.730Z,5.50
2019-01-12T01:42:16.350Z,5.50
2019-01-12T01:44:57.258Z,5.50
2019-01-12T01:47:38.429Z,5.50
2019-01-12T01:50:19.319Z,5.50
2019-01-12T01:53:00.026Z,5.50
2019-01-12T01:55:40.802Z,5.50
2019-01-12T01:58:21.354Z,5.50
2019-01-12T02:01:01.715Z,5.50
2019-01-12T02:03:42.533Z,5.50
2019-01-12T02:06:23.525Z,5.50
2019-01-12T02:09:04.955Z,5.60
2019-01-12T02:11:45.817Z,5.50
2019-01-12T02:14:26.246Z,5.50
2019-01-12T02:17:07.145Z,5.60
2019-01-12T02:19:48.059Z,5.60
2019-01-12T02:22:28.713Z,5.50
2019-01-12T02:25:09.010Z,5.50
2019-01-12T02:27:49.499Z,5.50
2019-01-12T02:30:30.178Z,5.50
2019-01-12T02:33:10.794Z,5.40
2019-01-12T02:35:51.346Z,5.40
2019-01-12T02:38:31.823Z,5.40
2019-01-12T02:41:12.601Z,5.40
2019-01-12T02:43:53.392Z,5.40
2019-01-12T02:46:34.030Z,5.30
2019-01-12T02:49:14.579Z,5.40
2019-01-12T02:51:54.946Z,5.40
2019-01-12T02:54:35.758Z,5.40
2019-01-12T02:57:16.225Z,5.30
2019-01-12T02:59:56.710Z,5.40
2019-01-12T03:02:37.921Z,5.40
2019-01-12T03:05:18.541Z,5.40
2019-01-12T03:07:59.490Z,5.40
2019-01-12T03:10:39.908Z,5.30
2019-01-12T03:13:20.320Z,5.40
2019-01-12T03:16:01.398Z,5.40
2019-01-12T03:18:41.869Z,5.40
2019-01-12T03:21:22.583Z,5.40
2019-01-12T03:24:03.302Z,5.30
2019-01-12T03:26:44.035Z,5.40
2019-01-12T03:29:24.745Z,5.30
2019-01-12T03:32:06.000Z,5.30
2019-01-12T03:34:46.559Z,5.30
2019-01-12T03:37:27.261Z,5.40
2019-01-12T03:40:08.414Z,5.40
2019-01-12T03:42:48.880Z,5.40
2019-01-12T03:45:29.327Z,5.30
2019-01-12T03:48:09.986Z,5.30
2019-01-12T03:50:50.874Z,5.40
2019-01-12T03:53:31.175Z,5.40
2019-01-12T03:56:11.678Z,5.40
2019-01-12T03:58:52.807Z,5.40
2019-01-12T04:01:33.131Z,5.30
2019-01-12T04:04:13.438Z,5.30
2019-01-12T04:06:54.102Z,5.30
2019-01-12T04:09:34.418Z,5.40
2019-01-12T04:12:15.250Z,5.40
2019-01-12T04:14:55.843Z,5.30
2019-01-12T04:17:36.603Z,5.30
2019-01-12T04:20:17.079Z,5.40
2019-01-12T04:22:57.766Z,5.30
2019-01-12T04:25:38.441Z,5.30
2019-01-12T04:28:19.314Z,5.30
2019-01-12T04:30:59.940Z,5.40
2019-01-12T04:33:40.634Z,5.30
2019-01-12T04:36:21.582Z,5.30
2019-01-12T04:39:02.426Z,5.30
2019-01-12T04:41:43.095Z,5.30
2019-01-12T04:44:24.030Z,5.30
2019-01-12T04:47:04.869Z,5.20
2019-01-12T04:49:45.482Z,5.20
2019-01-12T04:52:26.465Z,5.10
2019-01-12T04:55:07.740Z,5.20
2019-01-12T04:57:48.177Z,5.20
2019-01-12T05:00:29.255Z,5.20
2019-01-12T05:03:09.612Z,5.20
2019-01-12T05:05:50.043Z,5.20
2019-01-12T05:08:31.014Z,5.10
2019-01-12T05:11:11.439Z,5.10
2019-01-12T05:13:51.902Z,5.10
2019-01-12T05:16:32.828Z,5.20
2019-01-12T05:19:13.659Z,5.20
2019-01-12T05:21:54.014Z,5.10
2019-01-12T05:24:34.343Z,5.20
2019-01-12T05:27:14.903Z,5.20
2019-01-12T05:29:55.615Z,5.20
2019-01-12T05:32:36.591Z,5.20
2019-01-12T05:35:17.403Z,5.20
2019-01-12T05:37:58.442Z,5.20
2019-01-12T05:40:39.017Z,5.20
2019-01-12T05:43:19.783Z,5.10
2019-01-12T05:46:00.985Z,5.20
2019-01-12T05:48:41.949Z,5.10
2019-01-12T05:51:23.154Z,5.20
2019-01-12T05:54:03.931Z,5.30
2019-01-12T05:56:44.318Z,5.20
2019-01-12T05:59:25.619Z,5.20
2019-01-12T06:02:06.367Z,5.20
2019-01-12T06:04:47.066Z,5.10
2019-01-12T06:07:27.823Z,5.20
2019-01-12T06:10:08.796Z,5.10
2019-01-12T06:12:49.727Z,5.00
2019-01-12T06:15:30.562Z,5.20
2019-01-12T06:18:11.524Z,5.20
2019-01-12T06:20:52.091Z,5.10
2019-01-12T06:23:32.575Z,5.10
2019-01-12T06:26:13.298Z,5.10
2019-01-12T06:28:53.806Z,5.10
2019-01-12T06:31:34.270Z,5.10
2019-01-12T06:34:14.650Z,5.10
2019-01-12T06:36:55.352Z,5.10
2019-01-12T06:39:35.725Z,5.10
2019-01-12T06:42:16.155Z,5.00
2019-01-12T06:44:57.156Z,5.00
2019-01-12T06:47:37.814Z,5.00
2019-01-12T06:50:19.332Z,5.10
2019-01-12T06:52:59.761Z,5.00
2019-01-12T06:55:40.358Z,5.00
2019-01-12T06:58:21.343Z,5.00
2019-01-12T07:01:01.979Z,4.90
2019-01-12T07:03:42.857Z,5.00
2019-01-12T07:06:23.667Z,4.90
2019-01-12T07:09:04.515Z,4.90
2019-01-12T07:11:45.679Z,4.90
2019-01-12T07:14:26.190Z,4.90
2019-01-12T07:17:07.130Z,4.80
2019-01-12T07:19:48.226Z,4.90
2019-01-12T07:22:28.562Z,4.90
2019-01-12T07:25:09.351Z,4.90
2019-01-12T07:27:50.222Z,4.90
2019-01-12T07:30:30.843Z,4.90
2019-01-12T07:33:11.147Z,4.90
2019-01-12T07:35:51.875Z,4.90
2019-01-12T07:38:32.122Z,4.90
2019-01-12T07:41:12.775Z,4.90
2019-01-12T07:43:53.167Z,4.90
2019-01-12T07:46:33.550Z,4.90
2019-01-12T07:49:13.943Z,4.90
2019-01-12T07:51:54.390Z,4.80
2019-01-12T07:54:35.206Z,4.90
2019-01-12T07:57:15.587Z,5.00
2019-01-12T07:59:56.255Z,4.90
2019-01-12T08:02:36.727Z,5.00
2019-01-12T08:05:17.613Z,5.00
2019-01-12T08:07:58.301Z,4.90
2019-01-12T08:10:38.688Z,4.90
2019-01-12T08:13:19.638Z,4.90
2019-01-12T08:16:00.001Z,4.70
2019-01-12T08:18:40.643Z,4.90
2019-01-12T08:21:21.697Z,4.90
2019-01-12T08:24:02.448Z,4.90
2019-01-12T08:26:43.385Z,4.90
2019-01-12T08:29:24.138Z,4.90
2019-01-12T08:32:05.390Z,4.90
2019-01-12T08:34:46.975Z,4.80
2019-01-12T08:37:27.330Z,4.80
2019-01-12T08:40:08.037Z,4.90
2019-01-12T08:42:49.118Z,5.00
2019-01-12T08:45:29.999Z,5.00
2019-01-12T08:48:10.361Z,5.00
2019-01-12T08:50:51.156Z,4.90
2019-01-12T08:53:32.039Z,5.10
2019-01-12T08:56:12.646Z,5.00
2019-01-12T08:58:53.198Z,5.00
2019-01-12T09:01:33.539Z,5.00
2019-01-12T09:04:14.154Z,4.90
2019-01-12T09:06:54.512Z,5.00
2019-01-12T09:09:34.838Z,5.00
2019-01-12T09:12:15.538Z,5.10
2019-01-12T09:14:56.043Z,4.90
2019-01-12T09:17:36.955Z,5.10
2019-01-12T09:20:17.705Z,5.10
2019-01-12T09:22:58.137Z,5.00
2019-01-12T09:25:38.406Z,5.10
2019-01-12T09:28:19.289Z,5.10
2019-01-12T09:31:00.414Z,5.10
2019-01-12T09:33:41.131Z,5.00
2019-01-12T09:36:21.987Z,5.10
2019-01-12T09:39:04.338Z,5.10
2019-01-12T09:41:45.509Z,5.10
2019-01-12T09:44:26.198Z,5.10
2019-01-12T09:47:07.091Z,5.10
2019-01-12T09:49:47.800Z,5.10
2019-01-12T09:52:28.577Z,5.00
2019-01-12T09:55:09.419Z,5.00
2019-01-12T09:57:50.251Z,5.20
2019-01-12T10:00:31.217Z,5.20
2019-01-12T10:03:12.323Z,5.10
2019-01-12T10:05:53.070Z,5.20
2019-01-12T10:08:33.815Z,5.20
2019-01-12T10:11:14.977Z,5.20
2019-01-12T10:13:55.950Z,5.20
2019-01-12T10:16:37.200Z,5.10
2019-01-12T10:19:18.036Z,5.00
2019-01-12T10:21:58.985Z,5.20
2019-01-12T10:24:39.908Z,5.20
2019-01-12T10:27:20.375Z,5.10
2019-01-12T10:30:01.090Z,5.10
2019-01-12T10:32:41.626Z,5.10
2019-01-12T10:35:22.119Z,5.10
2019-01-12T10:38:02.985Z,5.10
2019-01-12T10:40:44.303Z,5.10
2019-01-12T10:43:24.854Z,5.10
2019-01-12T10:46:05.622Z,5.10
2019-01-12T10:48:46.742Z,5.10
2019-01-12T10:51:27.463Z,5.10
2019-01-12T10:54:08.189Z,5.10
2019-01-12T10:56:48.515Z,5.10
2019-01-12T10:59:29.271Z,5.10
2019-01-12T11:02:10.370Z,5.10
2019-01-12T11:04:51.189Z,5.20
2019-01-12T11:07:31.995Z,5.20
2019-01-12T11:10:12.803Z,5.20
2019-01-12T11:12:53.151Z,5.20
2019-01-12T11:15:33.771Z,5.10
2019-01-12T11:18:14.661Z,5.00
2019-01-12T11:20:55.058Z,5.10
2019-01-12T11:23:35.913Z,5.10
2019-01-12T11:26:16.319Z,5.00
2019-01-12T11:28:57.030Z,5.10
2019-01-12T11:31:38.145Z,5.10
2019-01-12T11:34:19.314Z,5.10
2019-01-12T11:36:59.850Z,5.10
2019-01-12T11:39:40.730Z,5.10
2019-01-12T11:42:21.585Z,5.10
2019-01-12T11:45:02.395Z,5.10
2019-01-12T11:47:43.202Z,5.10
2019-01-12T11:50:23.902Z,5.10
2019-01-12T11:53:04.811Z,5.10
2019-01-12T11:55:45.709Z,5.10
2019-01-12T11:58:26.490Z,5.10
2019-01-12T12:01:07.014Z,5.20
2019-01-12T12:03:47.603Z,5.20
2019-01-12T12:06:28.598Z,5.20
2019-01-12T12:09:09.563Z,5.20
2019-01-12T12:11:50.817Z,5.20
2019-01-12T12:14:31.838Z,5.20
2019-01-12T12:17:12.821Z,5.20
2019-01-12T12:19:53.646Z,5.20
2019-01-12T12:22:34.786Z,5.20
2019-01-12T12:25:15.838Z,5.20
2019-01-12T12:27:56.277Z,5.10
2019-01-12T12:30:37.258Z,5.20
2019-01-12T12:33:18.323Z,5.20
2019-01-12T12:35:59.006Z,5.20
2019-01-12T12:38:39.939Z,5.20
2019-01-12T12:41:20.999Z,5.20
2019-01-12T12:44:01.457Z,5.20
2019-01-12T12:46:41.847Z,5.20
2019-01-12T12:49:22.861Z,5.20
2019-01-12T12:52:03.563Z,5.10
2019-01-12T12:54:44.332Z,5.20
2019-01-12T12:57:24.875Z,5.10
2019-01-12T13:00:05.743Z,5.20
2019-01-12T13:02:46.590Z,5.20
2019-01-12T13:05:27.419Z,5.10
2019-01-12T13:08:08.185Z,5.20
2019-01-12T13:10:49.102Z,5.20
2019-01-12T13:13:29.739Z,5.20
2019-01-12T13:16:10.372Z,5.20
2019-01-12T13:18:50.942Z,5.20
2019-01-12T13:21:32.021Z,5.20
2019-01-12T13:24:12.843Z,5.20
2019-01-12T13:26:53.698Z,5.20
2019-01-12T13:29:34.198Z,5.20
2019-01-12T13:32:15.170Z,5.20
2019-01-12T13:34:55.618Z,5.10
2019-01-12T13:38:12.122Z,6.10
2019-01-12T13:43:09.176Z,5.40
2019-01-12T13:45:37.866Z,5.30
2019-01-12T13:48:06.668Z,5.30
2019-01-12T13:50:35.332Z,5.20
2019-01-12T13:53:04.309Z,5.20
2019-01-12T13:55:32.998Z,5.20
2019-01-12T13:58:01.665Z,5.20
2019-01-12T14:00:32.537Z,5.20
2019-01-12T14:03:01.668Z,5.20
2019-01-12T14:05:30.650Z,4.00
2019-01-12T14:07:59.501Z,5.20
2019-01-12T14:10:28.209Z,5.20
2019-01-12T14:12:56.890Z,5.30
2019-01-12T14:15:25.664Z,5.20
2019-01-12T14:17:54.314Z,5.30
2019-01-12T14:20:25.309Z,5.20
2019-01-12T14:22:53.970Z,5.30
2019-01-12T14:25:22.928Z,5.30
2019-01-12T14:27:54.773Z,5.30
2019-01-12T14:30:22.087Z,5.30
2019-01-12T14:32:50.860Z,5.30
2019-01-12T14:35:19.890Z,5.30
2019-01-12T14:37:48.961Z,5.30
2019-01-12T14:40:18.925Z,5.40
2019-01-12T14:42:47.717Z,5.40
2019-01-12T14:45:19.142Z,5.40
2019-01-12T14:47:47.846Z,5.40
2019-01-12T14:50:16.494Z,5.40
2019-01-12T14:52:45.378Z,5.40
2019-01-12T14:55:19.350Z,5.50
2019-01-12T14:57:48.150Z,5.40
2019-01-12T15:00:18.720Z,5.40
2019-01-12T15:02:47.450Z,5.40
2019-01-12T15:05:18.000Z,5.40
2019-01-12T15:07:46.737Z,5.50
2019-01-12T15:10:17.528Z,5.50
2019-01-12T15:12:46.718Z,5.50
2019-01-12T15:15:17.188Z,5.60
2019-01-12T15:17:46.007Z,5.50
2019-01-12T15:20:19.930Z,5.60
2019-01-12T15:22:48.799Z,5.60
2019-01-12T15:25:17.570Z,5.60
2019-01-12T15:27:46.325Z,5.70
2019-01-12T15:30:20.119Z,5.70
2019-01-12T15:32:48.802Z,5.70
2019-01-12T15:35:18.299Z,5.80
2019-01-12T15:37:47.009Z,5.80
2019-01-12T15:40:18.169Z,5.80
2019-01-12T15:42:46.824Z,5.80
2019-01-12T15:45:20.451Z,5.70
2019-01-12T15:47:49.324Z,5.80
2019-01-12T15:50:19.985Z,5.70
2019-01-12T15:52:48.855Z,5.80
2019-01-12T15:55:17.549Z,5.70
2019-01-12T15:57:46.336Z,5.80
2019-01-12T16:00:23.310Z,5.80
2019-01-12T16:02:52.107Z,5.80
2019-01-12T16:05:20.865Z,5.80
2019-01-12T16:07:49.556Z,5.90
2019-01-12T16:10:18.235Z,5.80
2019-01-12T16:12:47.079Z,5.90
2019-01-12T16:15:20.673Z,5.80
2019-01-12T16:17:49.650Z,5.90
2019-01-12T16:20:24.114Z,5.90
2019-01-12T16:22:52.777Z,5.90
2019-01-12T16:25:21.442Z,5.90
2019-01-12T16:27:50.313Z,5.90
2019-01-12T16:30:20.676Z,5.90
2019-01-12T16:32:49.565Z,6.00
2019-01-12T16:35:18.718Z,6.00
2019-01-12T16:37:47.404Z,6.00
2019-01-12T16:40:24.492Z,6.00
2019-01-12T16:42:53.482Z,6.10
2019-01-12T16:45:22.168Z,6.00
2019-01-12T16:47:50.951Z,6.00
2019-01-12T16:50:19.633Z,6.00
2019-01-12T16:52:48.350Z,6.00
2019-01-12T16:55:18.329Z,6.00
2019-01-12T16:57:46.960Z,6.00
2019-01-12T17:00:24.144Z,6.00
2019-01-12T17:02:52.885Z,5.90
2019-01-12T17:05:21.760Z,6.00
2019-01-12T17:07:50.445Z,6.00
2019-01-12T17:10:21.348Z,6.00
2019-01-12T17:12:50.057Z,6.10
2019-01-12T17:15:20.430Z,6.00
2019-01-12T17:17:49.114Z,6.00
2019-01-12T17:20:20.054Z,6.00
2019-01-12T17:22:49.606Z,6.10
2019-01-12T17:25:18.481Z,6.10
2019-01-12T17:27:47.182Z,6.10
2019-01-12T17:30:18.655Z,6.10
2019-01-12T17:32:47.318Z,6.00
2019-01-12T17:35:16.198Z,6.00
2019-01-12T17:37:45.546Z,6.00
2019-01-12T17:40:15.418Z,6.10
2019-01-12T17:42:44.072Z,6.00
2019-01-12T17:45:15.420Z,6.00
2019-01-12T17:47:44.107Z,6.00
2019-01-12T17:50:15.551Z,6.10
2019-01-12T17:52:44.247Z,6.00
2019-01-12T17:55:18.004Z,6.00
2019-01-12T17:57:46.685Z,6.00
2019-01-12T18:00:22.081Z,6.00
2019-01-12T18:02:50.761Z,6.10
2019-01-12T18:05:19.513Z,6.10
2019-01-12T18:07:48.181Z,6.00
2019-01-12T18:10:16.974Z,6.00
2019-01-12T18:12:45.739Z,5.90
2019-01-12T18:15:15.725Z,6.00
2019-01-12T18:17:44.603Z,5.90
2019-01-12T18:20:17.962Z,5.80
2019-01-12T18:22:46.661Z,5.90
2019-01-12T18:25:16.881Z,5.90
2019-01-12T18:27:45.766Z,5.90
2019-01-12T18:30:25.191Z,5.90
2019-01-12T18:32:53.920Z,5.90
2019-01-12T18:35:22.690Z,5.90
2019-01-12T18:37:51.466Z,5.90
2019-01-12T18:40:21.370Z,5.80
2019-01-12T18:42:50.190Z,5.80
2019-01-12T18:45:20.544Z,5.80
2019-01-12T18:47:49.261Z,5.80
2019-01-12T18:50:20.519Z,5.10
2019-01-12T18:52:49.598Z,5.70
2019-01-12T18:55:18.482Z,5.80
2019-01-12T18:57:47.160Z,5.80
2019-01-12T19:00:27.254Z,5.80
2019-01-12T19:02:56.247Z,5.70
2019-01-12T19:05:25.966Z,5.70
2019-01-12T19:07:55.228Z,5.70
2019-01-12T19:10:23.889Z,5.70
2019-01-12T19:12:52.576Z,5.60
2019-01-12T19:15:26.405Z,5.60
2019-01-12T19:17:55.084Z,5.60
2019-01-12T19:20:23.733Z,5.60
2019-01-12T19:22:52.377Z,5.60
2019-01-12T19:25:21.298Z,5.60
2019-01-12T19:27:49.956Z,5.60
2019-01-12T19:30:23.243Z,5.60
2019-01-12T19:32:51.913Z,5.60
2019-01-12T19:35:20.585Z,5.60
2019-01-12T19:37:49.509Z,5.60
2019-01-12T19:40:20.298Z,5.60
2019-01-12T19:42:48.946Z,5.70
2019-01-12T19:45:17.921Z,5.60
2019-01-12T19:47:46.623Z,5.60
2019-01-12T19:50:18.057Z,5.70
2019-01-12T19:52:46.739Z,5.70
2019-01-12T19:55:15.503Z,5.70
2019-01-12T19:57:44.310Z,5.70
2019-01-12T20:00:21.319Z,5.70
2019-01-12T20:02:49.989Z,5.70
2019-01-12T20:05:18.771Z,5.70
2019-01-12T20:07:47.450Z,5.70
2019-01-12T20:10:17.775Z,5.70
2019-01-12T20:12:46.560Z,5.70
2019-01-12T20:15:18.138Z,5.70
2019-01-12T20:17:47.093Z,5.70
2019-01-12T20:20:16.476Z,5.70
2019-01-12T20:22:45.177Z,5.80
2019-01-12T20:25:19.510Z,5.80
2019-01-12T20:27:48.175Z,5.70
2019-01-12T20:30:37.787Z,5.60
2019-01-12T20:33:15.434Z,5.50
2019-01-12T20:36:19.153Z,5.50
2019-01-12T20:39:16.747Z,5.50
2019-01-12T20:41:57.463Z,5.60
2019-01-12T20:44:31.878Z,5.70
2019-01-12T20:47:12.405Z,5.70
2019-01-12T20:49:44.031Z,7.50
2019-01-12T20:52:27.682Z,5.80
2019-01-12T20:55:05.177Z,5.90
2019-01-12T20:57:39.726Z,5.90
2019-01-12T21:00:26.571Z,5.80
2019-01-12T21:03:14.918Z,5.80
2019-01-12T21:05:46.518Z,5.70
2019-01-12T21:08:32.724Z,5.70
2019-01-12T21:11:10.300Z,5.80
2019-01-12T21:14:08.962Z,5.70
2019-01-12T21:16:37.922Z,5.70
2019-01-12T21:19:06.789Z,5.70
2019-01-12T21:21:35.458Z,5.80
2019-01-12T21:24:04.537Z,5.80
2019-01-12T21:26:33.249Z,5.40
2019-01-12T21:29:01.893Z,5.20
2019-01-12T21:31:30.587Z,5.00
2019-01-12T21:33:59.384Z,5.00
2019-01-12T21:36:28.052Z,4.90
2019-01-12T21:38:56.723Z,4.90
2019-01-12T21:41:25.407Z,4.90
2019-01-12T21:43:54.066Z,4.80
2019-01-12T21:46:22.933Z,4.80
2019-01-12T21:48:51.613Z,4.90
2019-01-12T21:51:20.265Z,4.90
2019-01-12T21:53:48.966Z,5.00
2019-01-12T21:56:17.628Z,5.00
2019-01-12T21:58:46.282Z,5.10
2019-01-12T22:01:16.524Z,5.20
2019-01-12T22:03:45.179Z,5.20
2019-01-12T22:06:13.860Z,5.30
2019-01-12T22:08:42.514Z,5.40
2019-01-12T22:11:11.198Z,5.50
2019-01-12T22:13:39.862Z,5.60
2019-01-12T22:16:08.534Z,5.60
2019-01-12T22:18:37.226Z,5.60
2019-01-12T22:21:05.930Z,5.60
2019-01-12T22:23:34.578Z,5.60
2019-01-12T22:26:03.259Z,5.70
2019-01-12T22:28:31.933Z,5.70
2019-01-12T22:31:00.587Z,5.70
2019-01-12T22:33:29.461Z,5.70
2019-01-12T22:35:58.146Z,5.70
2019-01-12T22:38:26.785Z,5.70
2019-01-12T22:40:55.450Z,5.70
2019-01-12T22:43:24.875Z,5.70
2019-01-12T22:45:53.651Z,5.70
2019-01-12T22:48:22.325Z,5.70
2019-01-12T22:50:50.969Z,5.60
2019-01-12T22:53:19.650Z,5.60
2019-01-12T22:55:48.297Z,5.50
2019-01-12T22:58:16.949Z,5.50
2019-01-12T23:00:48.905Z,5.60
2019-01-12T23:03:17.583Z,5.60
2019-01-12T23:05:46.237Z,5.60
2019-01-12T23:08:14.905Z,5.50
2019-01-12T23:10:43.580Z,5.60
2019-01-12T23:13:12.438Z,5.50
2019-01-12T23:15:41.205Z,5.50
2019-01-12T23:18:09.985Z,5.40
2019-01-12T23:20:38.649Z,5.40
2019-01-12T23:23:07.302Z,5.40
2019-01-12T23:25:35.986Z,5.30
2019-01-12T23:28:04.662Z,5.30
2019-01-12T23:30:33.328Z,5.30
2019-01-12T23:33:02.009Z,5.30
2019-01-12T23:35:30.666Z,5.40
2019-01-12T23:37:59.336Z,5.40
2019-01-12T23:40:28.050Z,5.40
2019-01-12T23:42:56.708Z,5.40
2019-01-12T23:45:25.393Z,5.50
2019-01-12T23:47:54.049Z,5.50
2019-01-12T23:50:22.721Z,5.50
2019-01-12T23:52:51.399Z,5.60
2019-01-12T23:55:20.269Z,5.70
2019-01-12T23:57:48.918Z,5.70
